createdAt,value
2022-08-17T00:01:38.508Z,72.02
2022-08-17T00:04:18.984Z,72.97
2022-08-17T00:06:45.897Z,72.05
2022-08-17T00:09:18.248Z,71.59
2022-08-17T00:12:41.578Z,72.91
2022-08-17T00:14:35.980Z,73.55
2022-08-17T00:17:03.868Z,73.14
2022-08-17T00:19:34.051Z,71.81
2022-08-17T00:22:33.717Z,71.29
2022-08-17T00:24:50.091Z,72.14
2022-08-17T00:27:17.879Z,71.63
2022-08-17T00:29:45.891Z,70.73
2022-08-17T00:33:12.568Z,71.93
2022-08-17T00:35:05.774Z,71.14
2022-08-17T00:37:32.289Z,71.53
2022-08-17T00:39:58.892Z,71.90
2022-08-17T00:42:30.771Z,74.13
2022-08-17T00:44:57.990Z,73.82
2022-08-17T00:47:24.655Z,74.72
2022-08-17T00:49:51.078Z,75.14
2022-08-17T00:52:22.976Z,75.13
2022-08-17T00:54:53.989Z,74.89
2022-08-17T00:57:30.004Z,73.55
2022-08-17T01:00:03.144Z,73.88
2022-08-17T01:02:41.201Z,75.31
2022-08-17T01:05:14.745Z,75.93
2022-08-17T01:07:42.290Z,75.36
2022-08-17T01:10:58.158Z,74.79
2022-08-17T01:12:57.882Z,74.52
2022-08-17T01:15:24.419Z,74.26
2022-08-17T01:17:52.965Z,74.69
2022-08-17T01:20:19.522Z,75.49
2022-08-17T01:22:46.030Z,75.34
2022-08-17T01:25:12.787Z,76.05
2022-08-17T01:27:40.981Z,75.84
2022-08-17T01:30:59.034Z,76.43
2022-08-17T01:33:00.572Z,76.35
2022-08-17T01:35:27.119Z,75.77
2022-08-17T01:37:53.694Z,75.75
2022-08-17T01:40:35.173Z,76.09
2022-08-17T01:43:10.944Z,76.05
2022-08-17T01:45:48.656Z,76.25
2022-08-17T01:48:36.455Z,77.08
2022-08-17T01:51:03.985Z,77.27
2022-08-17T01:53:44.179Z,75.84
2022-08-17T01:56:13.157Z,76.33
2022-08-17T01:58:41.442Z,75.26
2022-08-17T02:01:08.894Z,75.58
2022-08-17T02:03:38.284Z,76.32
2022-08-17T02:06:06.065Z,76.69
2022-08-17T02:09:01.801Z,77.91
2022-08-17T02:11:32.290Z,77.22
2022-08-17T02:14:03.443Z,76.53
2022-08-17T02:16:36.984Z,76.11
2022-08-17T02:19:06.493Z,75.89
2022-08-17T02:21:34.637Z,74.95
2022-08-17T02:24:01.689Z,77.21
2022-08-17T02:26:28.125Z,76.67
2022-08-17T02:28:54.832Z,75.72
2022-08-17T02:31:21.342Z,76.56
2022-08-17T02:34:00.455Z,77.63
2022-08-17T02:36:31.057Z,76.56
2022-08-17T02:38:58.564Z,78.17
2022-08-17T02:41:40.878Z,77.32
2022-08-17T02:44:07.547Z,77.39
2022-08-17T02:46:34.404Z,78.38
2022-08-17T02:49:00.885Z,76.72
2022-08-17T02:51:27.714Z,77.54
2022-08-17T02:54:35.738Z,77.11
2022-08-17T02:56:41.203Z,77.22
2022-08-17T02:59:07.721Z,77.57
2022-08-17T03:01:34.552Z,78.28
2022-08-17T03:04:01.119Z,76.96
2022-08-17T03:06:29.201Z,77.38
2022-08-17T03:08:55.637Z,77.04
2022-08-17T03:11:22.087Z,78.05
2022-08-17T03:13:48.497Z,79.16
2022-08-17T03:16:21.056Z,79.25
2022-08-17T03:18:48.558Z,79.68
2022-08-17T03:21:15.010Z,78.07
2022-08-17T03:23:42.177Z,78.58
2022-08-17T03:26:12.304Z,78.87
2022-08-17T03:28:42.304Z,78.73
2022-08-17T03:31:08.822Z,79.13
2022-08-17T03:33:35.310Z,77.76
2022-08-17T03:36:01.763Z,76.91
2022-08-17T03:38:28.245Z,76.47
2022-08-17T03:40:59.528Z,77.83
2022-08-17T03:43:32.588Z,78.65
2022-08-17T03:46:34.619Z,79.18
2022-08-17T03:49:25.222Z,78.96
2022-08-17T03:52:13.131Z,79.22
2022-08-17T03:54:59.012Z,77.89
2022-08-17T03:57:26.122Z,78.50
2022-08-17T03:59:53.944Z,78.75
2022-08-17T04:02:27.075Z,78.84
2022-08-17T04:04:54.202Z,78.52
2022-08-17T04:07:22.692Z,79.32
2022-08-17T04:09:49.695Z,77.83
2022-08-17T04:12:18.941Z,78.76
2022-08-17T04:14:53.088Z,78.16
2022-08-17T04:17:25.604Z,78.96
2022-08-17T04:19:52.948Z,79.03
2022-08-17T04:22:30.099Z,78.99
2022-08-17T04:25:14.332Z,80.37
2022-08-17T04:27:40.941Z,80.11
2022-08-17T04:30:08.126Z,79.56
2022-08-17T04:33:04.697Z,79.83
2022-08-17T04:35:49.116Z,79.15
2022-08-17T04:38:19.212Z,80.04
2022-08-17T04:41:11.321Z,80.04
2022-08-17T04:43:40.009Z,80.79
2022-08-17T04:46:18.392Z,80.73
2022-08-17T04:48:50.742Z,80.50
2022-08-17T04:51:23.328Z,80.28
2022-08-17T04:53:54.111Z,80.60
2022-08-17T04:56:22.217Z,81.00
2022-08-17T04:58:50.470Z,80.11
2022-08-17T05:01:23.189Z,79.97
2022-08-17T05:03:51.076Z,80.24
2022-08-17T05:06:17.525Z,80.79
2022-08-17T05:08:47.105Z,80.84
2022-08-17T05:11:14.223Z,81.25
2022-08-17T05:13:40.641Z,81.22
2022-08-17T05:16:07.220Z,81.31
2022-08-17T05:18:33.754Z,81.08
2022-08-17T05:21:00.239Z,80.86
2022-08-17T05:23:41.746Z,80.19
2022-08-17T05:26:20.406Z,81.23
2022-08-17T05:29:16.371Z,81.24
2022-08-17T05:31:42.791Z,80.52
2022-08-17T05:34:09.205Z,80.46
2022-08-17T05:36:41.565Z,81.13
2022-08-17T05:39:17.068Z,80.76
2022-08-17T05:41:46.053Z,81.66
2022-08-17T05:44:12.650Z,80.87
2022-08-17T05:46:43.602Z,80.62
2022-08-17T05:49:11.171Z,81.47
2022-08-17T05:51:59.070Z,79.66
2022-08-17T05:54:50.840Z,78.98
2022-08-17T05:57:30.680Z,78.56
2022-08-17T06:00:16.938Z,78.49
2022-08-17T06:03:10.644Z,78.64
2022-08-17T06:06:31.536Z,77.46
2022-08-17T06:09:10.297Z,78.03
2022-08-17T06:12:30.101Z,78.15
2022-08-17T06:15:24.805Z,78.43
2022-08-17T06:17:58.734Z,78.00
2022-08-17T06:20:27.793Z,78.30
2022-08-17T06:23:05.453Z,77.94
2022-08-17T06:25:39.217Z,77.64
2022-08-17T06:28:13.877Z,77.17
2022-08-17T06:31:03.212Z,73.93
2022-08-17T06:33:35.421Z,73.90
2022-08-17T06:36:26.395Z,73.92
2022-08-17T06:39:24.455Z,73.21
2022-08-17T06:43:00.819Z,73.49
2022-08-17T06:45:28.663Z,73.26
2022-08-17T06:48:10.445Z,71.97
2022-08-17T06:50:38.609Z,71.71
2022-08-17T06:53:31.649Z,69.70
2022-08-17T06:56:09.173Z,68.70
2022-08-17T06:58:38.813Z,68.98
2022-08-17T07:01:10.106Z,67.23
2022-08-17T07:03:44.410Z,66.86
2022-08-17T07:06:16.690Z,65.48
2022-08-17T07:09:02.254Z,66.22
2022-08-17T07:11:40.511Z,65.79
2022-08-17T07:14:19.612Z,65.43
2022-08-17T07:16:56.403Z,63.23
2022-08-17T07:19:26.447Z,59.05
2022-08-17T07:22:30.339Z,59.13
2022-08-17T07:25:18.425Z,58.73
2022-08-17T07:27:53.965Z,58.64
2022-08-17T07:30:27.148Z,58.20
2022-08-17T07:32:58.383Z,56.24
2022-08-17T07:35:41.344Z,57.67
2022-08-17T07:38:25.259Z,56.95
2022-08-17T07:40:57.557Z,54.70
2022-08-17T07:43:36.601Z,55.39
2022-08-17T07:46:24.644Z,55.09
2022-08-17T07:48:54.932Z,55.94
2022-08-17T07:51:29.205Z,53.81
2022-08-17T07:54:13.479Z,53.27
2022-08-17T07:56:43.779Z,54.51
2022-08-17T07:59:13.190Z,53.25
2022-08-17T08:01:44.489Z,52.60
2022-08-17T08:04:58.908Z,52.26
2022-08-17T08:07:16.757Z,51.66
2022-08-17T08:09:45.477Z,50.47
2022-08-17T08:12:40.101Z,50.67
2022-08-17T08:15:33.235Z,50.93
2022-08-17T08:18:54.559Z,50.70
2022-08-17T08:21:47.366Z,50.20
2022-08-17T08:24:30.087Z,49.57
2022-08-17T08:27:04.925Z,50.69
2022-08-17T08:30:00.541Z,50.32
2022-08-17T08:33:02.232Z,50.13
2022-08-17T08:35:50.469Z,50.66
2022-08-17T08:38:28.233Z,48.89
2022-08-17T08:41:04.131Z,48.94
2022-08-17T08:43:53.236Z,49.64
2022-08-17T08:46:40.624Z,48.84
2022-08-17T08:49:17.473Z,48.22
2022-08-17T08:51:52.648Z,48.53
2022-08-17T08:54:31.430Z,48.22
2022-08-17T09:00:14.843Z,48.76
2022-08-17T09:02:59.860Z,48.46
2022-08-17T09:05:52.470Z,48.69
2022-08-17T09:08:36.568Z,48.06
2022-08-17T09:11:24.719Z,47.75
2022-08-17T09:14:21.235Z,47.30
2022-08-17T09:17:15.164Z,48.59
2022-08-17T09:19:57.786Z,49.24
2022-08-17T09:22:38.528Z,48.68
2022-08-17T09:25:21.703Z,48.10
2022-08-17T09:28:32.280Z,48.74
2022-08-17T09:31:06.682Z,48.89
2022-08-17T09:33:39.806Z,47.68
2022-08-17T09:36:43.241Z,46.84
2022-08-17T09:39:17.188Z,46.27
2022-08-17T09:42:03.283Z,47.29
2022-08-17T09:44:51.529Z,45.72
2022-08-17T09:47:55.683Z,46.01
2022-08-17T09:51:03.409Z,46.33
2022-08-17T09:53:37.145Z,43.71
2022-08-17T09:56:46.015Z,45.28
2022-08-17T09:59:38.601Z,46.98
2022-08-17T10:02:25.206Z,46.58
2022-08-17T10:05:32.314Z,47.14
2022-08-17T10:08:23.889Z,47.04
2022-08-17T10:11:48.286Z,48.20
2022-08-17T10:14:43.997Z,49.63
2022-08-17T10:17:21.397Z,50.18
2022-08-17T10:20:19.058Z,49.33
2022-08-17T10:23:13.339Z,48.53
2022-08-17T10:26:04.768Z,49.71
2022-08-17T10:28:40.046Z,49.89
2022-08-17T10:31:33.650Z,51.15
2022-08-17T10:34:11.818Z,50.06
2022-08-17T10:36:54.666Z,50.01
2022-08-17T10:39:26.354Z,48.81
2022-08-17T10:42:00.520Z,49.18
2022-08-17T10:44:48.360Z,49.16
2022-08-17T10:47:18.137Z,48.29
2022-08-17T10:49:53.918Z,48.36
2022-08-17T10:52:20.725Z,49.67
2022-08-17T10:54:58.625Z,49.20
2022-08-17T10:57:31.854Z,48.52
2022-08-17T11:00:06.926Z,47.26
2022-08-17T11:02:52.373Z,47.25
2022-08-17T11:05:41.509Z,45.14
2022-08-17T11:08:51.991Z,44.00
2022-08-17T11:11:36.145Z,42.68
2022-08-17T11:14:27.207Z,42.80
2022-08-17T11:17:26.815Z,42.82
2022-08-17T11:20:22.593Z,42.46
2022-08-17T11:23:10.759Z,42.55
2022-08-17T11:25:47.187Z,41.91
2022-08-17T11:28:21.048Z,43.02
2022-08-17T11:30:49.759Z,42.04
2022-08-17T11:33:36.775Z,43.44
2022-08-17T11:36:11.757Z,42.66
2022-08-17T11:38:59.666Z,43.29
2022-08-17T11:42:07.757Z,42.24
2022-08-17T11:44:53.102Z,43.09
2022-08-17T11:48:23.825Z,43.76
2022-08-17T11:51:16.706Z,41.99
2022-08-17T11:53:43.061Z,40.84
2022-08-17T11:56:31.480Z,43.35
2022-08-17T11:59:00.437Z,42.39
2022-08-17T12:01:26.908Z,41.05
2022-08-17T12:03:58.867Z,41.75
2022-08-17T12:06:42.054Z,43.29
2022-08-17T12:09:17.494Z,40.95
2022-08-17T12:12:01.645Z,40.67
2022-08-17T12:15:05.686Z,40.81
2022-08-17T12:17:39.498Z,40.78
2022-08-17T12:20:24.340Z,41.73
2022-08-17T12:23:18.097Z,41.24
2022-08-17T12:25:56.643Z,41.02
2022-08-17T12:28:32.540Z,40.67
2022-08-17T12:31:06.518Z,41.27
2022-08-17T12:33:35.951Z,40.54
2022-08-17T12:36:06.475Z,40.76
2022-08-17T12:38:36.073Z,40.91
2022-08-17T12:41:25.103Z,39.54
2022-08-17T12:44:05.955Z,40.54
2022-08-17T12:46:45.917Z,41.90
2022-08-17T12:49:36.930Z,40.34
2022-08-17T12:52:06.512Z,40.06
2022-08-17T12:54:41.983Z,40.34
2022-08-17T12:57:16.661Z,39.83
2022-08-17T12:59:47.520Z,39.10
2022-08-17T13:02:28.355Z,39.56
2022-08-17T13:04:57.965Z,39.97
2022-08-17T13:07:29.995Z,39.33
2022-08-17T13:09:56.592Z,39.42
2022-08-17T13:12:34.754Z,39.27
2022-08-17T13:15:01.845Z,39.45
2022-08-17T13:17:35.787Z,38.04
2022-08-17T13:20:06.127Z,38.31
2022-08-17T13:22:32.887Z,37.12
2022-08-17T13:25:04.045Z,38.30
2022-08-17T13:27:31.753Z,36.80
2022-08-17T13:30:02.218Z,36.31
2022-08-17T13:32:47.607Z,37.78
2022-08-17T13:35:34.466Z,37.95
2022-08-17T13:38:10.313Z,37.60
2022-08-17T13:40:49.044Z,37.33
2022-08-17T13:43:44.931Z,37.35
2022-08-17T13:46:31.042Z,36.29
2022-08-17T13:49:01.806Z,35.56
2022-08-17T13:51:42.359Z,35.90
2022-08-17T13:54:32.511Z,35.84
2022-08-17T13:57:02.371Z,36.10
2022-08-17T13:59:54.141Z,34.51
2022-08-17T14:02:23.276Z,35.51
2022-08-17T14:04:56.417Z,36.35
2022-08-17T14:07:30.155Z,36.47
2022-08-17T14:10:24.992Z,36.57
2022-08-17T14:12:52.741Z,35.57
2022-08-17T14:15:22.445Z,34.40
2022-08-17T14:17:51.511Z,34.33
2022-08-17T14:20:22.268Z,35.22
2022-08-17T14:22:53.721Z,36.07
2022-08-17T14:25:24.466Z,35.74
2022-08-17T14:28:08.941Z,35.82
2022-08-17T14:30:37.711Z,36.00
2022-08-17T14:33:05.885Z,35.82
2022-08-17T14:35:53.564Z,35.61
2022-08-17T14:38:20.828Z,36.14
2022-08-17T14:40:49.136Z,36.53
2022-08-17T14:43:15.802Z,35.39
2022-08-17T14:45:45.406Z,36.31
2022-08-17T14:48:13.912Z,36.79
2022-08-17T14:50:42.355Z,36.21
2022-08-17T14:53:13.369Z,35.68
2022-08-17T14:55:40.395Z,36.30
2022-08-17T14:58:10.307Z,35.45
2022-08-17T15:00:37.821Z,34.95
2022-08-17T15:03:05.325Z,35.77
2022-08-17T15:05:35.371Z,35.07
2022-08-17T15:08:03.450Z,35.75
2022-08-17T15:10:31.506Z,36.55
2022-08-17T15:12:58.716Z,36.39
2022-08-17T15:15:25.887Z,35.95
2022-08-17T15:17:52.344Z,36.18
2022-08-17T15:20:29.697Z,36.44
2022-08-17T15:22:59.025Z,37.36
2022-08-17T15:25:27.738Z,36.21
2022-08-17T15:27:55.970Z,36.37
2022-08-17T15:30:23.469Z,36.66
2022-08-17T15:32:55.181Z,36.14
2022-08-17T15:35:27.442Z,36.52
2022-08-17T15:37:56.689Z,37.40
2022-08-17T15:40:23.302Z,37.50
2022-08-17T15:42:51.037Z,36.79
2022-08-17T15:45:22.873Z,37.13
2022-08-17T15:47:49.443Z,36.94
2022-08-17T15:50:16.063Z,38.72
2022-08-17T15:52:44.853Z,38.46
2022-08-17T15:55:13.864Z,38.64
2022-08-17T15:57:40.679Z,38.63
2022-08-17T16:00:09.397Z,39.17
2022-08-17T16:03:13.363Z,39.34
2022-08-17T16:05:24.960Z,39.59
2022-08-17T16:07:52.281Z,40.28
2022-08-17T16:10:19.576Z,38.19
2022-08-17T16:12:47.958Z,38.23
2022-08-17T16:15:15.423Z,38.32
2022-08-17T16:17:42.262Z,38.23
2022-08-17T16:20:20.698Z,38.21
2022-08-17T16:22:48.258Z,38.58
2022-08-17T16:25:22.002Z,39.00
2022-08-17T16:27:53.530Z,39.08
2022-08-17T16:30:23.543Z,39.18
2022-08-17T16:32:51.784Z,38.37
2022-08-17T16:35:21.214Z,37.86
2022-08-17T16:37:48.276Z,39.10
2022-08-17T16:40:17.027Z,39.86
2022-08-17T16:42:45.865Z,40.26
2022-08-17T16:45:19.774Z,41.01
2022-08-17T16:47:48.222Z,40.22
2022-08-17T16:50:17.638Z,40.23
2022-08-17T16:52:48.385Z,40.47
2022-08-17T16:55:19.363Z,40.34
2022-08-17T16:57:49.971Z,41.96
2022-08-17T17:00:19.271Z,40.50
2022-08-17T17:02:47.823Z,40.58
2022-08-17T17:05:14.360Z,40.78
2022-08-17T17:08:12.788Z,40.53
2022-08-17T17:10:47.808Z,41.26
2022-08-17T17:13:23.715Z,41.71
2022-08-17T17:15:58.884Z,41.13
2022-08-17T17:18:41.188Z,41.76
2022-08-17T17:21:13.868Z,42.57
2022-08-17T17:23:52.339Z,43.14
2022-08-17T17:26:34.773Z,44.31
2022-08-17T17:29:10.245Z,43.16
2022-08-17T17:31:45.137Z,43.44
2022-08-17T17:34:15.841Z,43.02
2022-08-17T17:36:50.145Z,43.80
2022-08-17T17:39:31.823Z,45.00
2022-08-17T17:42:02.483Z,45.71
2022-08-17T17:44:43.496Z,47.00
2022-08-17T17:47:11.868Z,48.08
2022-08-17T17:49:41.318Z,48.78
2022-08-17T17:52:19.133Z,49.17
2022-08-17T17:55:00.711Z,49.60
2022-08-17T17:57:58.015Z,49.85
2022-08-17T18:00:31.174Z,50.25
2022-08-17T18:03:06.848Z,51.52
2022-08-17T18:05:45.724Z,51.50
2022-08-17T18:08:34.764Z,52.95
2022-08-17T18:11:34.714Z,53.61
2022-08-17T18:14:29.271Z,54.56
2022-08-17T18:16:59.659Z,55.07
2022-08-17T18:19:28.178Z,55.54
2022-08-17T18:22:07.213Z,54.35
2022-08-17T18:24:37.832Z,55.05
2022-08-17T18:27:19.045Z,58.03
2022-08-17T18:29:47.599Z,62.48
2022-08-17T18:32:49.562Z,67.40
2022-08-17T18:35:19.025Z,68.75
2022-08-17T18:38:19.473Z,68.54
2022-08-17T18:40:56.435Z,71.56
2022-08-17T18:43:44.192Z,72.18
2022-08-17T18:46:40.080Z,72.35
2022-08-17T18:49:27.160Z,71.30
2022-08-17T18:52:13.954Z,70.88
2022-08-17T18:54:59.311Z,73.11
2022-08-17T18:57:42.929Z,75.74
2022-08-17T19:00:17.264Z,74.48
2022-08-17T19:02:57.219Z,74.92
2022-08-17T19:05:35.181Z,73.36
2022-08-17T19:08:37.838Z,72.87
2022-08-17T19:11:10.208Z,74.66
2022-08-17T19:13:57.562Z,75.50
2022-08-17T19:16:32.435Z,75.51
2022-08-17T19:19:05.592Z,76.37
2022-08-17T19:21:40.351Z,77.12
2022-08-17T19:24:19.377Z,76.94
2022-08-17T19:27:14.831Z,77.00
2022-08-17T19:29:53.926Z,77.53
2022-08-17T19:32:26.555Z,76.33
2022-08-17T19:34:53.239Z,73.67
2022-08-17T19:38:01.713Z,71.79
2022-08-17T19:41:00.538Z,70.86
2022-08-17T19:43:55.691Z,71.69
2022-08-17T19:47:01.294Z,72.00
2022-08-17T19:49:40.925Z,71.96
2022-08-17T19:52:30.597Z,71.97
2022-08-17T19:55:23.894Z,73.94
2022-08-17T19:57:50.504Z,75.14
2022-08-17T20:00:18.708Z,75.53
2022-08-17T20:03:05.609Z,76.80
2022-08-17T20:06:01.322Z,72.01
2022-08-17T20:08:27.188Z,70.89
2022-08-17T20:10:55.436Z,69.17
2022-08-17T20:13:35.450Z,69.61
2022-08-17T20:16:03.816Z,68.72
2022-08-17T20:18:33.269Z,69.51
2022-08-17T20:21:06.097Z,70.14
2022-08-17T20:23:53.357Z,71.42
2022-08-17T20:26:38.690Z,72.73
2022-08-17T20:29:15.350Z,73.54
2022-08-17T20:31:53.965Z,72.33
2022-08-17T20:34:34.884Z,72.57
2022-08-17T20:37:10.778Z,73.34
2022-08-17T20:39:42.224Z,74.76
2022-08-17T20:42:20.868Z,78.82
2022-08-17T20:44:55.570Z,79.50
2022-08-17T20:47:31.863Z,81.62
2022-08-17T20:50:05.402Z,82.15
2022-08-17T20:53:00.709Z,82.36
2022-08-17T20:55:51.426Z,84.77
2022-08-17T20:58:25.236Z,85.06
2022-08-17T21:00:57.713Z,88.43
2022-08-17T21:03:24.303Z,88.74
2022-08-17T21:06:17.149Z,88.94
2022-08-17T21:08:59.005Z,89.90
2022-08-17T21:11:57.160Z,91.96
2022-08-17T21:14:44.542Z,91.97
2022-08-17T21:17:26.249Z,92.93
2022-08-17T21:20:27.030Z,95.34
2022-08-17T21:23:18.113Z,93.45
2022-08-17T21:26:06.332Z,93.82
2022-08-17T21:28:35.703Z,94.07
2022-08-17T21:31:08.529Z,93.26
2022-08-17T21:33:39.580Z,94.46
2022-08-17T21:36:12.057Z,95.64
2022-08-17T21:38:42.297Z,96.33
2022-08-17T21:41:31.775Z,95.77
2022-08-17T21:44:30.509Z,94.84
2022-08-17T21:47:24.485Z,96.35
2022-08-17T21:49:52.368Z,99.30
2022-08-17T21:52:21.847Z,100.00
2022-08-17T21:54:53.066Z,100.00
2022-08-17T21:57:23.455Z,98.67
2022-08-17T22:00:01.894Z,96.94
2022-08-17T22:02:41.641Z,97.90
2022-08-17T22:05:13.223Z,100.00
2022-08-17T22:07:42.669Z,99.63
2022-08-17T22:10:30.547Z,97.28
2022-08-17T22:13:20.600Z,95.82
2022-08-17T22:16:15.632Z,98.11
2022-08-17T22:18:58.755Z,100.00
2022-08-17T22:21:26.245Z,100.00
2022-08-17T22:24:07.567Z,100.00
2022-08-17T22:27:00.080Z,100.00
2022-08-17T22:29:48.017Z,96.64
2022-08-17T22:32:45.607Z,98.39
2022-08-17T22:35:42.056Z,97.89
2022-08-17T22:38:20.708Z,99.21
2022-08-17T22:40:53.799Z,100.00
2022-08-17T22:43:26.055Z,100.00
2022-08-17T22:45:55.777Z,100.00
2022-08-17T22:48:27.412Z,100.00
2022-08-17T22:51:13.417Z,100.00
2022-08-17T22:54:15.092Z,100.00
2022-08-17T22:57:19.130Z,100.00
2022-08-17T22:59:54.667Z,100.00
2022-08-17T23:02:26.335Z,100.00
2022-08-17T23:05:16.580Z,99.14
2022-08-17T23:07:45.457Z,99.32
2022-08-17T23:10:13.857Z,99.30
2022-08-17T23:12:40.594Z,98.15
2022-08-17T23:15:17.372Z,97.98
2022-08-17T23:17:45.367Z,98.56
2022-08-17T23:20:14.998Z,99.31
2022-08-17T23:22:51.440Z,99.87
2022-08-17T23:25:29.509Z,99.73
2022-08-17T23:27:58.378Z,100.00
2022-08-17T23:30:25.646Z,100.00
2022-08-17T23:32:54.318Z,99.64
2022-08-17T23:35:39.650Z,99.34
2022-08-17T23:38:07.815Z,99.22
2022-08-17T23:40:34.479Z,98.46
2022-08-17T23:43:01.058Z,98.54
2022-08-17T23:45:32.495Z,98.82
2022-08-17T23:47:58.930Z,99.85
2022-08-17T23:50:25.432Z,100.00
2022-08-17T23:52:57.618Z,100.00
2022-08-17T23:55:24.045Z,99.98
2022-08-17T23:57:50.694Z,99.33
